Time;durP1;ratioP1;P1;durP2;ratioP2;P2;SDS_P1;SDS_P2;PMS_P1;PMS_P2;Temp;Humidity;BMP_temperature;BMP_pressure;BME280_temperature;BME280_humidity;BME280_pressure;Samples;Min_cycle;Max_cycle;Signal;HPM_P1;HPM_P2
2022/03/08 00:00:54;;;;;;;37.98;17.42;;;;;;;-2.59;70.77;97680.52;1698343;84;21075;-89
2022/03/08 00:03:21;;;;;;;32.20;16.20;;;;;;;-2.57;69.92;97679.70;1698249;84;21004;-89
2022/03/08 00:05:48;;;;;;;34.78;16.40;;;;;;;-2.56;70.84;97678.88;1698601;84;21056;-88
2022/03/08 00:08:14;;;;;;;32.45;16.17;;;;;;;-2.59;70.83;97677.93;1704027;84;21051;-88
2022/03/08 00:10:41;;;;;;;32.55;16.60;;;;;;;-2.62;71.70;97680.48;1704184;84;20996;-89
2022/03/08 00:13:08;;;;;;;39.55;16.42;;;;;;;-2.62;71.58;97676.59;1703835;84;21039;-89
2022/03/08 00:15:35;;;;;;;31.70;16.85;;;;;;;-2.61;72.93;97675.34;1703981;84;21067;-88
2022/03/08 00:18:02;;;;;;;29.80;16.70;;;;;;;-2.59;71.76;97677.93;1675694;84;21544;-89
2022/03/08 00:20:30;;;;;;;32.15;16.67;;;;;;;-2.58;71.03;97686.19;1703936;84;20964;-88
2022/03/08 00:22:57;;;;;;;34.48;17.77;;;;;;;-2.59;71.55;97693.09;1703816;84;21552;-88
2022/03/08 00:25:24;;;;;;;31.07;16.80;;;;;;;-2.61;72.28;97685.72;1704062;84;21468;-88
2022/03/08 00:27:51;;;;;;;29.82;15.85;;;;;;;-2.61;71.14;97680.52;1703905;84;21005;-89
2022/03/08 00:30:26;;;;;;;33.28;16.73;;;;;;;-2.58;72.72;97681.00;1703929;84;21054;-88
2022/03/08 00:32:55;;;;;;;31.48;16.85;;;;;;;-2.53;71.46;97685.41;1704082;84;21020;-88
2022/03/08 00:35:25;;;;;;;32.28;16.50;;;;;;;-2.54;74.05;97680.18;1703977;84;21082;-87
2022/03/08 00:37:53;;;;;;;33.10;16.60;;;;;;;-2.49;71.94;97678.98;1700366;84;21473;-88
2022/03/08 00:40:23;;;;;;;33.48;16.95;;;;;;;-2.49;72.46;97681.13;1697366;84;21044;-88
2022/03/08 00:42:51;;;;;;;35.78;16.62;;;;;;;-2.48;72.61;97680.72;1697457;84;21028;-88
2022/03/08 00:45:18;;;;;;;33.40;16.37;;;;;;;-2.43;71.60;97684.27;1697466;84;21031;-87
2022/03/08 00:47:45;;;;;;;31.48;17.23;;;;;;;-2.44;71.42;97678.63;1697513;84;21076;-87
2022/03/08 00:50:19;;;;;;;35.20;17.57;;;;;;;-2.53;73.37;97686.70;1697335;84;21085;-88
2022/03/08 00:52:46;;;;;;;32.73;16.32;;;;;;;-2.58;74.85;97680.56;1697465;84;22074;-88
2022/03/08 00:55:14;;;;;;;34.45;17.37;;;;;;;-2.59;73.52;97685.72;1697148;84;21422;-88
2022/03/08 00:57:41;;;;;;;34.08;17.80;;;;;;;-2.60;73.15;97678.38;1697265;84;21040;-87
2022/03/08 01:00:13;;;;;;;31.27;16.95;;;;;;;-2.63;73.49;97688.69;1697378;84;21008;-88
2022/03/08 01:02:41;;;;;;;32.13;17.50;;;;;;;-2.69;74.60;97689.88;1697482;84;21000;-87
2022/03/08 01:05:08;;;;;;;30.80;16.55;;;;;;;-2.72;75.85;97693.70;1697593;84;20992;-87
2022/03/08 01:07:35;;;;;;;35.45;17.98;;;;;;;-2.74;74.18;97700.16;1697591;84;21493;-86
2022/03/08 01:10:04;;;;;;;35.83;17.10;;;;;;;-2.76;76.67;97688.00;1697416;84;21430;-86
2022/03/08 01:12:30;;;;;;;34.27;17.50;;;;;;;-2.73;74.37;97694.14;1697518;84;21055;-86
2022/03/08 01:14:57;;;;;;;32.50;18.15;;;;;;;-2.78;76.14;97693.19;1697504;84;21035;-86
2022/03/08 01:17:25;;;;;;;33.02;17.40;;;;;;;-2.71;74.30;97691.55;1697427;84;21096;-87
2022/03/08 01:19:51;;;;;;;29.52;16.02;;;;;;;-2.71;74.56;97687.25;1697405;84;21031;-86
2022/03/08 01:22:18;;;;;;;32.60;16.52;;;;;;;-2.75;74.99;97691.07;1697140;84;21048;-85
2022/03/08 01:24:46;;;;;;;33.67;17.15;;;;;;;-2.68;73.71;97690.32;1702109;84;20964;-86
2022/03/08 01:27:13;;;;;;;32.67;17.55;;;;;;;-2.63;73.77;97691.72;1703902;84;21434;-85
2022/03/08 01:29:40;;;;;;;33.70;17.52;;;;;;;-2.59;74.67;97694.38;1703153;84;21047;-86
2022/03/08 01:32:08;;;;;;;31.82;16.42;;;;;;;-2.60;77.23;97694.34;1703924;84;22165;-87
2022/03/08 01:34:34;;;;;;;36.45;17.40;;;;;;;-2.73;76.96;97698.03;1703998;84;21019;-87
2022/03/08 01:37:04;;;;;;;37.30;19.15;;;;;;;-2.72;75.84;97693.70;1703461;84;21060;-87
2022/03/08 01:39:31;;;;;;;35.78;17.07;;;;;;;-2.70;75.78;97699.37;1700823;84;21008;-88
2022/03/08 01:41:59;;;;;;;35.68;17.15;;;;;;;-2.68;75.66;97696.40;1689137;84;21025;-87
2022/03/08 01:44:27;;;;;;;30.80;17.00;;;;;;;-2.66;76.44;97699.87;1682145;85;21033;-87
2022/03/08 01:46:53;;;;;;;38.50;18.75;;;;;;;-2.74;75.71;97691.07;1682158;85;20977;-87
2022/03/08 01:49:20;;;;;;;34.18;17.50;;;;;;;-2.68;75.24;97693.80;1681610;85;21013;-86
2022/03/08 01:51:47;;;;;;;35.28;18.92;;;;;;;-2.64;76.33;97690.83;1682065;85;21033;-87
2022/03/08 01:54:13;;;;;;;37.75;17.98;;;;;;;-2.66;75.22;97692.54;1682173;85;21000;-88
2022/03/08 01:56:40;;;;;;;34.80;18.00;;;;;;;-2.71;76.49;97689.84;1682110;85;21048;-87
2022/03/08 01:59:06;;;;;;;38.78;17.65;;;;;;;-2.70;75.47;97691.58;1682132;85;21068;-87
2022/03/08 02:01:33;;;;;;;33.30;17.85;;;;;;;-2.70;75.36;97691.58;1659095;85;21001;-87
2022/03/08 02:04:00;;;;;;;34.48;17.80;;;;;;;-2.70;75.37;97700.66;1681999;85;21029;-86
2022/03/08 02:06:28;;;;;;;34.40;18.37;;;;;;;-2.72;75.59;97710.16;1682506;85;21017;-86
2022/03/08 02:08:55;;;;;;;33.90;18.35;;;;;;;-2.71;77.09;97705.41;1682242;85;21083;-86
2022/03/08 02:11:23;;;;;;;34.85;18.90;;;;;;;-2.71;77.39;97704.52;1682195;85;21036;-87
2022/03/08 02:13:49;;;;;;;34.23;17.95;;;;;;;-2.77;75.18;97702.70;1682173;85;21045;-87
2022/03/08 02:16:16;;;;;;;33.63;17.45;;;;;;;-2.74;76.38;97696.70;1682166;85;21059;-88
2022/03/08 02:18:43;;;;;;;38.33;18.42;;;;;;;-2.80;78.21;97702.64;1681937;85;21094;-88
2022/03/08 02:21:09;;;;;;;31.85;16.80;;;;;;;-2.84;77.18;97709.91;1681988;85;20985;-88
2022/03/08 02:23:36;;;;;;;39.18;18.10;;;;;;;-2.86;78.04;97705.13;1682077;85;21021;-88
2022/03/08 02:26:03;;;;;;;36.15;18.10;;;;;;;-2.87;76.33;97702.94;1682128;85;20965;-88
2022/03/08 02:28:30;;;;;;;32.28;17.23;;;;;;;-2.84;77.75;97704.31;1682067;85;21040;-88
2022/03/08 02:30:57;;;;;;;33.45;16.30;;;;;;;-2.79;76.06;97701.38;1682245;85;21501;-88
2022/03/08 02:33:24;;;;;;;36.00;18.60;;;;;;;-2.79;76.76;97706.56;1681765;85;21058;-87
2022/03/08 02:35:50;;;;;;;32.70;17.12;;;;;;;-2.76;75.55;97699.27;1682256;85;21048;-87
2022/03/08 02:38:17;;;;;;;34.15;16.57;;;;;;;-2.81;77.01;97699.60;1682092;85;20969;-87
2022/03/08 02:40:44;;;;;;;39.73;17.52;;;;;;;-2.82;75.86;97708.23;1682160;85;21467;-87
2022/03/08 02:43:12;;;;;;;32.45;17.15;;;;;;;-2.78;75.46;97712.64;1693613;84;21000;-88
2022/03/08 02:45:40;;;;;;;33.05;16.20;;;;;;;-2.76;75.22;97710.05;1694267;85;21067;-87
2022/03/08 02:48:07;;;;;;;32.80;17.82;;;;;;;-2.71;76.14;97712.30;1694269;85;21076;-87
2022/03/08 02:50:34;;;;;;;35.58;17.40;;;;;;;-2.69;75.27;97719.27;1694431;85;21091;-86
2022/03/08 02:53:01;;;;;;;33.83;18.17;;;;;;;-2.72;75.73;97722.23;1694400;83;21020;-86
2022/03/08 02:55:32;;;;;;;34.18;17.42;;;;;;;-2.68;75.54;97723.64;1694500;85;21044;-87
2022/03/08 02:58:00;;;;;;;35.52;17.80;;;;;;;-2.67;75.97;97723.20;1694502;85;21402;-87
2022/03/08 03:00:29;;;;;;;30.68;16.95;;;;;;;-2.70;76.51;97727.05;1695297;83;21502;-87
2022/03/08 03:02:56;;;;;;;29.50;15.88;;;;;;;-2.75;76.47;97724.80;1695077;85;21040;-87
2022/03/08 03:05:23;;;;;;;32.13;15.90;;;;;;;-2.73;75.45;97726.98;1694483;85;21068;-87
2022/03/08 03:07:50;;;;;;;35.35;16.45;;;;;;;-2.71;75.71;97723.56;1694368;85;21457;-87
2022/03/08 03:10:21;;;;;;;35.03;16.70;;;;;;;-2.71;75.84;97731.35;1694024;85;21434;-87
2022/03/08 03:12:48;;;;;;;32.63;16.57;;;;;;;-2.70;76.72;97728.34;1694495;85;21040;-87
2022/03/08 03:15:18;;;;;;;30.30;16.35;;;;;;;-2.74;75.84;97729.98;1694227;85;21099;-87
2022/03/08 03:17:46;;;;;;;32.73;16.80;;;;;;;-2.72;76.72;97731.31;1694347;84;21104;-87
2022/03/08 03:20:16;;;;;;;34.15;16.52;;;;;;;-2.72;75.90;97729.61;1694387;85;21024;-87
2022/03/08 03:22:44;;;;;;;33.13;16.67;;;;;;;-2.75;77.28;97735.17;1694351;85;20980;-87
2022/03/08 03:25:12;;;;;;;37.65;18.15;;;;;;;-2.74;77.40;97739.50;1694312;85;21088;-87
2022/03/08 03:27:39;;;;;;;34.15;17.00;;;;;;;-2.75;76.85;97732.13;1694323;83;20988;-87
2022/03/08 03:30:09;;;;;;;36.35;17.75;;;;;;;-2.77;75.95;97736.84;1694101;85;21072;-86
2022/03/08 03:32:36;;;;;;;30.65;16.77;;;;;;;-2.73;75.44;97741.25;1694461;85;21457;-86
2022/03/08 03:35:05;;;;;;;32.70;16.27;;;;;;;-2.71;75.56;97744.73;1694061;84;21428;-86
2022/03/08 03:37:32;;;;;;;34.20;16.75;;;;;;;-2.66;76.50;97745.72;1696750;83;21024;-86
2022/03/08 03:39:58;;;;;;;33.05;16.85;;;;;;;-2.66;76.25;97739.23;1698406;84;21020;-86
2022/03/08 03:42:25;;;;;;;36.90;17.45;;;;;;;-2.66;75.78;97740.09;1693207;84;21502;-85
2022/03/08 03:44:51;;;;;;;34.45;17.00;;;;;;;-2.61;75.87;97728.52;1688192;85;21020;-85
2022/03/08 03:47:18;;;;;;;31.12;16.15;;;;;;;-2.59;75.70;97741.50;1688599;85;21015;-85
2022/03/08 03:49:44;;;;;;;32.13;16.95;;;;;;;-2.55;75.49;97734.23;1688388;85;21009;-85
2022/03/08 03:52:11;;;;;;;30.17;15.83;;;;;;;-2.54;76.06;97738.56;1688328;85;21072;-86
2022/03/08 03:54:38;;;;;;;32.35;16.62;;;;;;;-2.58;77.67;97738.08;1688460;85;21484;-86
2022/03/08 03:57:05;;;;;;;33.78;16.23;;;;;;;-2.63;76.81;97748.36;1688556;85;21001;-86
2022/03/08 03:59:31;;;;;;;33.25;16.60;;;;;;;-2.67;75.63;97747.84;1688446;85;21048;-86
2022/03/08 04:01:57;;;;;;;33.53;16.45;;;;;;;-2.69;75.74;97749.55;1688547;85;21460;-84
2022/03/08 04:04:24;;;;;;;32.42;15.63;;;;;;;-2.75;77.22;97749.44;1688572;85;20981;-84
2022/03/08 04:06:50;;;;;;;34.70;17.77;;;;;;;-2.79;76.49;97751.07;1688686;85;20989;-84
2022/03/08 04:09:17;;;;;;;32.73;16.85;;;;;;;-2.81;76.57;97754.95;1688733;85;21418;-84
2022/03/08 04:11:44;;;;;;;34.88;16.70;;;;;;;-2.82;76.28;97749.73;1688542;85;20994;-85
2022/03/08 04:14:11;;;;;;;31.70;17.02;;;;;;;-2.82;75.80;97754.48;1688712;85;21072;-84
2022/03/08 04:16:37;;;;;;;30.60;15.28;;;;;;;-2.81;75.98;97761.85;1688642;85;20992;-84
2022/03/08 04:19:04;;;;;;;35.65;16.93;;;;;;;-2.83;75.68;97757.07;1688599;85;21028;-84
2022/03/08 04:21:30;;;;;;;38.30;17.17;;;;;;;-2.85;75.42;97757.44;1688562;85;21458;-84
2022/03/08 04:23:57;;;;;;;34.35;17.40;;;;;;;-2.87;75.15;97764.33;1688641;85;21044;-84
2022/03/08 04:26:23;;;;;;;38.35;18.17;;;;;;;-2.95;76.85;97757.70;1688334;85;21012;-84
2022/03/08 04:28:50;;;;;;;36.30;18.57;;;;;;;-2.97;75.30;97755.06;1688632;85;21005;-84
2022/03/08 04:31:17;;;;;;;37.85;17.75;;;;;;;-3.00;75.95;97760.17;1688489;85;21043;-86
2022/03/08 04:33:44;;;;;;;43.58;19.05;;;;;;;-3.02;75.48;97761.88;1688375;85;21056;-86
2022/03/08 04:36:11;;;;;;;37.13;18.12;;;;;;;-3.05;75.75;97754.02;1688415;85;21056;-86
2022/03/08 04:38:38;;;;;;;34.92;17.32;;;;;;;-3.07;75.99;97756.58;1683136;85;21001;-86
2022/03/08 04:41:06;;;;;;;36.25;17.85;;;;;;;-3.07;75.19;97755.72;1682178;85;21447;-86
2022/03/08 04:43:34;;;;;;;33.95;17.73;;;;;;;-3.09;74.81;97758.27;1692623;84;21028;-86
2022/03/08 04:46:01;;;;;;;37.95;17.23;;;;;;;-3.10;74.75;97759.13;1694239;85;21024;-86
2022/03/08 04:48:27;;;;;;;38.40;18.60;;;;;;;-3.11;75.32;97759.94;1694582;83;21052;-86
2022/03/08 04:50:54;;;;;;;36.45;17.98;;;;;;;-3.10;75.40;97750.45;1694520;85;21442;-86
2022/03/08 04:53:21;;;;;;;38.00;18.45;;;;;;;-3.08;75.58;97747.46;1694310;85;21336;-86
2022/03/08 04:55:47;;;;;;;31.60;16.05;;;;;;;-3.08;76.80;97746.17;1664230;85;21015;-87
2022/03/08 04:58:14;;;;;;;36.88;17.95;;;;;;;-3.13;76.71;97743.91;1694237;85;21454;-86
2022/03/08 05:00:41;;;;;;;34.70;17.65;;;;;;;-3.12;75.45;97743.08;1694516;85;21028;-86
2022/03/08 05:03:11;;;;;;;37.88;18.67;;;;;;;-3.15;75.76;97737.82;1694499;85;21426;-86
2022/03/08 05:05:44;;;;;;;37.78;18.55;;;;;;;-3.21;76.37;97743.74;1694290;85;21485;-86
2022/03/08 05:08:10;;;;;;;35.63;18.07;;;;;;;-3.22;77.31;97740.70;1694477;85;21069;-86
2022/03/08 05:10:37;;;;;;;39.85;18.52;;;;;;;-3.22;76.90;97756.25;1694486;85;21024;-86
2022/03/08 05:13:03;;;;;;;39.40;18.55;;;;;;;-3.26;76.98;97745.36;1694287;83;21059;-85
2022/03/08 05:15:30;;;;;;;37.28;18.40;;;;;;;-3.32;78.38;97737.91;1694015;85;21016;-85
2022/03/08 05:17:56;;;;;;;38.60;17.73;;;;;;;-3.37;78.05;97734.34;1694555;85;21533;-85
2022/03/08 05:20:23;;;;;;;36.00;18.57;;;;;;;-3.38;76.96;97728.72;1694939;85;20981;-87
2022/03/08 05:22:49;;;;;;;36.98;18.48;;;;;;;-3.40;77.56;97722.64;1694587;85;21022;-86
2022/03/08 05:25:16;;;;;;;40.00;18.62;;;;;;;-3.44;77.39;97728.59;1694645;85;21004;-87
2022/03/08 05:27:42;;;;;;;41.70;18.70;;;;;;;-3.50;78.63;97733.21;1694534;85;21107;-87
2022/03/08 05:30:10;;;;;;;37.85;19.07;;;;;;;-3.58;79.27;97734.75;1694626;85;21422;-87
2022/03/08 05:32:37;;;;;;;41.58;19.32;;;;;;;-3.63;78.88;97733.36;1694469;85;20997;-86
2022/03/08 05:35:04;;;;;;;45.52;20.77;;;;;;;-3.64;79.19;97737.20;1694546;85;21446;-86
2022/03/08 05:37:31;;;;;;;39.58;18.52;;;;;;;-3.63;78.18;97735.95;1697369;83;21075;-87
2022/03/08 05:39:58;;;;;;;42.90;20.77;;;;;;;-3.53;77.50;97749.11;1710544;83;20973;-87
2022/03/08 05:42:24;;;;;;;40.43;19.82;;;;;;;-3.47;77.17;97753.13;1700331;83;21026;-86
2022/03/08 05:44:50;;;;;;;41.23;20.88;;;;;;;-3.41;77.25;97756.29;1707281;83;21006;-85
2022/03/08 05:47:17;;;;;;;42.10;19.15;;;;;;;-3.38;77.11;97759.81;1710367;83;21021;-85
2022/03/08 05:49:47;;;;;;;41.63;19.87;;;;;;;-3.38;76.64;97758.52;1714508;83;21081;-85
2022/03/08 05:52:14;;;;;;;42.78;20.25;;;;;;;-3.38;76.53;97761.11;1698365;84;21061;-86
2022/03/08 05:54:41;;;;;;;45.88;20.48;;;;;;;-3.38;76.43;97765.00;1698720;84;21061;-86
2022/03/08 05:57:09;;;;;;;41.58;20.00;;;;;;;-3.43;76.30;97761.84;1716830;83;21036;-86
2022/03/08 05:59:35;;;;;;;41.05;19.70;;;;;;;-3.37;76.10;97777.11;1723717;83;21043;-86
2022/03/08 06:02:02;;;;;;;32.90;17.25;;;;;;;-3.36;75.78;97771.08;1723674;83;21008;-86
2022/03/08 06:04:28;;;;;;;33.13;16.65;;;;;;;-3.29;75.40;97776.42;1705114;83;21406;-89
2022/03/08 06:06:55;;;;;;;36.65;17.48;;;;;;;-3.33;74.76;97775.05;1718044;83;21068;-84
2022/03/08 06:09:21;;;;;;;34.25;17.07;;;;;;;-3.28;74.73;97777.72;1708587;83;21449;-87
2022/03/08 06:11:48;;;;;;;32.73;16.45;;;;;;;-3.19;74.68;97775.78;1721289;83;21004;-88
2022/03/08 06:14:15;;;;;;;31.42;16.48;;;;;;;-3.12;74.29;97771.16;1721423;83;21036;-86
2022/03/08 06:16:41;;;;;;;34.58;16.17;;;;;;;-3.05;73.80;97777.35;1704943;83;21005;-86
2022/03/08 06:19:09;;;;;;;35.17;15.65;;;;;;;-2.95;73.69;97784.48;1712110;83;21347;-86
2022/03/08 06:21:35;;;;;;;33.18;16.15;;;;;;;-2.81;73.81;97786.08;1712187;84;21029;-90
2022/03/08 06:24:02;;;;;;;35.98;16.50;;;;;;;-2.65;73.95;97798.06;1710344;83;21029;-90
2022/03/08 06:26:31;;;;;;;34.27;16.15;;;;;;;-2.46;73.75;97801.02;1708619;83;21029;-88
2022/03/08 06:28:58;;;;;;;38.05;18.55;;;;;;;-2.36;73.64;97805.53;1698972;84;21080;-88
2022/03/08 06:31:25;;;;;;;38.50;18.55;;;;;;;-2.21;73.43;97809.27;1699043;84;21041;-88
2022/03/08 06:33:51;;;;;;;35.00;16.40;;;;;;;-2.06;73.46;97809.95;1705646;83;21048;-87
2022/03/08 06:36:18;;;;;;;36.45;17.10;;;;;;;-1.96;72.82;97814.45;1695974;83;21031;-88
2022/03/08 06:38:46;;;;;;;33.20;17.02;;;;;;;-1.91;71.54;97811.95;1687851;83;21301;-88
2022/03/08 06:41:14;;;;;;;33.08;17.23;;;;;;;-1.88;71.92;97814.58;1698671;84;21038;-89
2022/03/08 06:43:41;;;;;;;37.38;17.25;;;;;;;-1.78;72.32;97813.88;1714000;83;21107;-85
2022/03/08 06:46:08;;;;;;;32.05;17.52;;;;;;;-1.58;72.32;97808.14;1709061;83;21003;-91
2022/03/08 06:48:37;;;;;;;32.93;16.85;;;;;;;-1.45;72.12;97809.23;1722717;83;21075;-93
2022/03/08 06:51:04;;;;;;;36.15;17.60;;;;;;;-1.36;71.47;97814.98;1723105;83;21528;-87
2022/03/08 06:53:31;;;;;;;32.73;15.75;;;;;;;-1.31;69.68;97812.44;1724636;83;21458;-88
2022/03/08 06:55:59;;;;;;;30.45;16.60;;;;;;;-1.27;70.18;97819.03;1725379;83;20996;-89
2022/03/08 06:58:26;;;;;;;29.52;15.45;;;;;;;-1.16;70.48;97819.61;1725150;83;21019;-91
2022/03/08 07:00:53;;;;;;;34.03;16.57;;;;;;;-1.12;67.94;97816.20;1723834;83;21004;-92
2022/03/08 07:03:20;;;;;;;31.27;17.42;;;;;;;-1.15;68.45;97819.64;1719467;83;20976;-95
2022/03/08 07:05:47;;;;;;;34.38;17.82;;;;;;;-1.12;68.49;97818.36;1697989;84;22123;-90
2022/03/08 07:08:14;;;;;;;37.90;17.37;;;;;;;-1.07;68.43;97812.80;1698736;84;21004;-91
2022/03/08 07:10:41;;;;;;;30.35;15.30;;;;;;;-1.12;66.35;97827.91;1697929;84;21108;-86
2022/03/08 07:13:07;;;;;;;31.68;17.42;;;;;;;-1.16;65.74;97823.06;1699893;83;20964;-86
2022/03/08 07:15:34;;;;;;;28.12;16.02;;;;;;;-1.15;66.85;97820.05;1705029;83;21423;-86
2022/03/08 07:18:00;;;;;;;30.90;16.42;;;;;;;-1.14;66.84;97806.19;1703028;84;21039;-86
2022/03/08 07:20:27;;;;;;;33.40;16.17;;;;;;;-1.11;66.87;97808.43;1703737;84;21064;-86
2022/03/08 07:22:54;;;;;;;26.23;14.65;;;;;;;-1.00;67.33;97815.50;1703318;84;21446;-86
2022/03/08 07:25:20;;;;;;;32.58;16.90;;;;;;;-0.89;66.94;97816.92;1704010;84;21034;-86
2022/03/08 07:27:47;;;;;;;32.58;16.37;;;;;;;-0.82;67.06;97820.07;1704178;84;21016;-86
2022/03/08 07:30:13;;;;;;;30.27;15.93;;;;;;;-0.71;67.30;97811.11;1703459;84;21465;-86
2022/03/08 07:32:40;;;;;;;36.25;17.50;;;;;;;-0.62;66.57;97809.89;1704317;84;21016;-86
2022/03/08 07:35:08;;;;;;;37.00;19.45;;;;;;;-0.61;66.37;97809.06;1704228;84;21039;-86
2022/03/08 07:37:39;;;;;;;32.25;17.57;;;;;;;-0.64;65.79;97805.52;1704257;84;21508;-86
2022/03/08 07:40:07;;;;;;;32.23;17.50;;;;;;;-0.58;66.08;97809.53;1704232;84;21012;-86
2022/03/08 07:42:34;;;;;;;34.10;17.87;;;;;;;-0.54;66.47;97804.81;1703694;84;21035;-86
2022/03/08 07:45:00;;;;;;;37.40;18.57;;;;;;;-0.44;66.23;97809.27;1699027;84;21022;-86
2022/03/08 07:47:27;;;;;;;35.48;18.00;;;;;;;-0.31;66.50;97803.76;1699097;84;21487;-86
2022/03/08 07:49:54;;;;;;;34.48;17.87;;;;;;;-0.21;65.70;97806.47;1698967;84;21041;-87
2022/03/08 07:52:21;;;;;;;37.60;19.20;;;;;;;-0.14;64.76;97793.93;1699112;84;21065;-87
2022/03/08 07:54:47;;;;;;;33.05;18.12;;;;;;;-0.14;64.70;97787.42;1699029;84;21463;-87
2022/03/08 07:57:13;;;;;;;32.63;17.98;;;;;;;-0.12;64.41;97792.23;1699130;84;20958;-87
2022/03/08 07:59:40;;;;;;;30.97;17.17;;;;;;;-0.04;64.42;97789.25;1698981;84;21068;-87
2022/03/08 08:02:08;;;;;;;32.58;17.20;;;;;;;0.04;64.70;97791.07;1699091;84;21044;-85
2022/03/08 08:04:35;;;;;;;29.95;15.93;;;;;;;0.11;65.06;97789.84;1699240;84;21459;-85
2022/03/08 08:07:01;;;;;;;30.20;17.05;;;;;;;0.11;62.56;97792.86;1699017;84;21056;-85
2022/03/08 08:09:28;;;;;;;31.75;15.83;;;;;;;-0.02;62.80;97786.66;1699028;84;21428;-87
2022/03/08 08:11:55;;;;;;;29.80;16.12;;;;;;;-0.10;62.31;97797.44;1699200;84;21037;-85
2022/03/08 08:14:22;;;;;;;33.33;16.50;;;;;;;-0.14;63.03;97788.72;1698996;84;21094;-85
2022/03/08 08:16:49;;;;;;;34.00;17.48;;;;;;;-0.20;62.86;97785.62;1699033;84;21037;-85
2022/03/08 08:19:15;;;;;;;31.68;17.85;;;;;;;-0.24;62.87;97785.17;1699715;84;21037;-85
2022/03/08 08:21:42;;;;;;;34.70;17.15;;;;;;;-0.35;61.90;97793.27;1699755;84;21096;-85
2022/03/08 08:24:08;;;;;;;28.67;14.83;;;;;;;-0.48;62.39;97788.36;1699922;84;21034;-85
2022/03/08 08:26:35;;;;;;;27.32;14.00;;;;;;;-0.48;61.81;97802.27;1700127;84;21057;-86
2022/03/08 08:29:03;;;;;;;25.48;13.78;;;;;;;-0.43;61.86;97799.29;1699450;84;21005;-86
2022/03/08 08:31:31;;;;;;;25.70;14.33;;;;;;;-0.37;61.25;97800.20;1699142;84;21018;-86
2022/03/08 08:33:57;;;;;;;26.93;14.50;;;;;;;-0.24;60.80;97794.28;1699286;84;21006;-86
2022/03/08 08:36:24;;;;;;;25.05;13.08;;;;;;;-0.12;60.32;97797.45;1699203;84;21435;-85
2022/03/08 08:38:51;;;;;;;25.82;13.90;;;;;;;0.06;61.23;97800.66;1699047;84;21034;-87
2022/03/08 08:41:18;;;;;;;28.02;13.75;;;;;;;0.24;60.74;97801.66;1699397;84;21471;-86
2022/03/08 08:43:44;;;;;;;22.90;13.03;;;;;;;0.33;59.68;97796.97;1701190;84;21069;-86
2022/03/08 08:46:11;;;;;;;21.93;12.28;;;;;;;0.45;60.10;97795.75;1704023;84;21032;-86
2022/03/08 08:48:37;;;;;;;25.15;13.38;;;;;;;0.59;59.20;97789.77;1704164;84;21029;-87
2022/03/08 08:51:04;;;;;;;22.27;12.13;;;;;;;0.72;58.22;97795.52;1704158;84;21106;-86
2022/03/08 08:53:30;;;;;;;21.97;12.30;;;;;;;0.68;57.69;97786.34;1704196;84;21009;-86
2022/03/08 08:55:57;;;;;;;19.25;11.53;;;;;;;0.71;58.09;97786.38;1704247;84;20981;-86
2022/03/08 08:58:24;;;;;;;20.25;11.35;;;;;;;0.59;55.57;97790.66;1704236;84;20997;-85
2022/03/08 09:00:50;;;;;;;21.12;11.10;;;;;;;0.62;58.18;97781.98;1704219;84;20997;-86
2022/03/08 09:03:17;;;;;;;20.77;10.53;;;;;;;0.68;58.51;97782.02;1704228;84;21036;-86
2022/03/08 09:05:47;;;;;;;20.37;10.43;;;;;;;0.72;57.84;97792.91;1703947;84;21025;-85
2022/03/08 09:08:15;;;;;;;22.75;10.98;;;;;;;0.81;57.97;97787.29;1703853;84;21101;-86
2022/03/08 09:10:42;;;;;;;16.15;10.03;;;;;;;0.85;56.12;97784.73;1704005;84;21060;-86
2022/03/08 09:13:08;;;;;;;16.32;9.40;;;;;;;0.85;53.42;97781.23;1704084;84;21013;-86
2022/03/08 09:15:35;;;;;;;20.68;10.58;;;;;;;0.74;50.73;97783.77;1704227;84;21033;-85
2022/03/08 09:18:07;;;;;;;19.05;9.83;;;;;;;0.76;53.54;97785.55;1704139;84;21055;-86
2022/03/08 09:20:33;;;;;;;18.20;10.10;;;;;;;0.79;54.40;97776.88;1704074;84;21041;-86
2022/03/08 09:22:59;;;;;;;22.25;10.88;;;;;;;0.85;53.72;97773.41;1704201;84;20994;-86
2022/03/08 09:25:27;;;;;;;18.67;10.48;;;;;;;0.98;54.85;97782.17;1704239;84;21205;-84
2022/03/08 09:27:53;;;;;;;17.35;10.60;;;;;;;1.14;55.88;97777.48;1704057;84;21013;-86
2022/03/08 09:30:20;;;;;;;20.20;11.20;;;;;;;1.32;56.09;97773.19;1704089;84;21458;-86
2022/03/08 09:32:46;;;;;;;19.37;11.12;;;;;;;1.43;52.51;97772.82;1704241;84;21033;-86
2022/03/08 09:35:13;;;;;;;18.20;10.40;;;;;;;1.47;53.13;97770.20;1704186;84;21056;-86
2022/03/08 09:37:40;;;;;;;17.35;10.18;;;;;;;1.62;53.39;97773.30;1704194;84;21139;-85
2022/03/08 09:40:08;;;;;;;18.07;10.90;;;;;;;1.81;51.58;97768.98;1704228;84;21036;-86
2022/03/08 09:42:35;;;;;;;21.60;11.33;;;;;;;1.83;51.15;97765.50;1676640;84;21032;-86
2022/03/08 09:45:02;;;;;;;19.62;10.88;;;;;;;2.03;51.83;97760.73;1703826;84;21501;-86
2022/03/08 09:47:29;;;;;;;18.45;10.82;;;;;;;2.21;52.52;97755.94;1704018;84;20990;-86
2022/03/08 09:49:56;;;;;;;19.65;9.43;;;;;;;2.43;52.77;97755.95;1704181;84;21049;-86
2022/03/08 09:52:23;;;;;;;15.43;9.55;;;;;;;2.61;50.46;97763.33;1704082;84;21061;-86
2022/03/08 09:54:50;;;;;;;15.05;8.28;;;;;;;2.73;50.02;97763.75;1704140;84;21002;-86
2022/03/08 09:57:18;;;;;;;12.33;8.33;;;;;;;2.66;47.63;97765.95;1704124;84;21084;-86
2022/03/08 09:59:45;;;;;;;14.75;8.93;;;;;;;2.61;47.06;97760.28;1704130;84;21005;-86
2022/03/08 10:02:14;;;;;;;13.50;7.65;;;;;;;2.34;44.78;97759.45;1704092;84;21135;-86
2022/03/08 10:04:41;;;;;;;14.60;7.42;;;;;;;2.24;47.47;97761.61;1704180;84;21060;-87
2022/03/08 10:07:12;;;;;;;13.60;7.83;;;;;;;2.22;46.85;97756.83;1704224;84;21077;-86
2022/03/08 10:09:39;;;;;;;10.68;6.60;;;;;;;2.27;46.91;97756.81;1703872;84;21045;-86
2022/03/08 10:12:17;;;;;;;12.03;7.12;;;;;;;2.36;48.14;97758.13;1704002;84;21439;-86
2022/03/08 10:14:45;;;;;;;12.03;7.42;;;;;;;2.52;48.32;97744.59;1704247;84;21400;-86
2022/03/08 10:17:37;;;;;;;12.55;7.97;;;;;;;2.67;47.36;97750.26;1704023;84;21499;-86
2022/03/08 10:20:11;;;;;;;10.90;6.58;;;;;;;2.87;48.62;97748.89;1704055;84;21077;-86
2022/03/08 10:22:40;;;;;;;16.10;7.97;;;;;;;3.09;45.18;97743.60;1704064;84;21041;-86
2022/03/08 10:25:22;;;;;;;9.73;6.25;;;;;;;3.20;47.12;97744.00;1704044;84;21473;-86
2022/03/08 10:28:00;;;;;;;6.37;4.28;;;;;;;3.29;46.27;97756.59;1704079;84;21072;-86
2022/03/08 10:30:47;;;;;;;5.05;2.58;;;;;;;3.32;44.65;97752.24;1703119;84;21096;-85
2022/03/08 10:33:19;;;;;;;5.12;2.25;;;;;;;3.24;39.32;97751.82;1704187;84;21454;-85
2022/03/08 10:35:49;;;;;;;3.60;2.58;;;;;;;3.30;40.78;97747.00;1704078;84;21029;-85
2022/03/08 10:38:16;;;;;;;5.00;3.02;;;;;;;3.41;40.60;97752.20;1703820;84;21076;-85
2022/03/08 10:40:44;;;;;;;5.83;3.70;;;;;;;3.25;37.63;97747.47;1704099;84;20973;-85
2022/03/08 10:43:14;;;;;;;6.17;4.10;;;;;;;3.35;39.95;97743.04;1703950;84;21463;-85
2022/03/08 10:45:48;;;;;;;6.75;3.98;;;;;;;3.60;40.39;97742.91;1704236;84;21025;-85
2022/03/08 10:48:18;;;;;;;6.78;3.70;;;;;;;3.89;38.88;97729.64;1704230;84;21460;-85
2022/03/08 10:50:49;;;;;;;5.25;3.40;;;;;;;4.40;39.95;97727.50;1704224;84;21053;-86
2022/03/08 10:53:15;;;;;;;4.67;3.55;;;;;;;4.86;39.70;97727.02;1704134;84;21013;-86
2022/03/08 10:55:50;;;;;;;6.55;3.80;;;;;;;4.90;39.59;97718.66;1704126;84;21064;-86
2022/03/08 10:58:19;;;;;;;5.20;3.77;;;;;;;5.01;39.60;97724.69;1703971;84;21129;-86
2022/03/08 11:00:55;;;;;;;6.20;3.40;;;;;;;4.94;41.09;97718.20;1704087;84;21110;-86
2022/03/08 11:03:27;;;;;;;5.45;3.62;;;;;;;4.91;40.66;97729.62;1704155;84;21029;-86
2022/03/08 11:05:56;;;;;;;4.15;3.22;;;;;;;4.50;35.89;97729.15;1703845;84;21009;-87
2022/03/08 11:08:28;;;;;;;5.25;3.47;;;;;;;4.30;38.73;97733.25;1704256;84;21093;-86
2022/03/08 11:10:56;;;;;;;5.47;2.90;;;;;;;4.19;38.58;97726.34;1704172;84;21001;-87
2022/03/08 11:13:22;;;;;;;6.10;3.58;;;;;;;4.06;38.34;97729.52;1703997;84;21045;-87
2022/03/08 11:15:49;;;;;;;9.00;4.50;;;;;;;3.82;38.43;97732.73;1704208;84;21072;-87
2022/03/08 11:18:17;;;;;;;6.15;4.03;;;;;;;3.76;38.75;97727.55;1703943;84;21029;-87
2022/03/08 11:20:47;;;;;;;4.92;3.83;;;;;;;3.58;38.99;97723.72;1704039;84;20994;-87
2022/03/08 11:23:13;;;;;;;5.05;3.67;;;;;;;3.62;40.05;97718.90;1704043;84;21459;-87